sensor_id;sensor_type;location;lat;lon;timestamp;P1;durP1;ratioP1;P2;durP2;ratioP2
78860;SDS011;68211;45.774;15.892;2023-06-26T00:00:11;32.75;;;16.02;;
78860;SDS011;68211;45.774;15.892;2023-06-26T00:02:37;26.75;;;15.77;;
78860;SDS011;68211;45.774;15.892;2023-06-26T00:05:04;28.17;;;16.45;;
78860;SDS011;68211;45.774;15.892;2023-06-26T00:07:31;24.67;;;16.17;;
78860;SDS011;68211;45.774;15.892;2023-06-26T00:09:58;32.00;;;16.63;;
78860;SDS011;68211;45.774;15.892;2023-06-26T00:12:27;26.13;;;16.25;;
78860;SDS011;68211;45.774;15.892;2023-06-26T00:14:54;27.38;;;15.82;;
78860;SDS011;68211;45.774;15.892;2023-06-26T00:17:20;30.98;;;15.75;;
78860;SDS011;68211;45.774;15.892;2023-06-26T00:19:47;31.50;;;15.52;;
78860;SDS011;68211;45.774;15.892;2023-06-26T00:22:13;26.20;;;15.30;;
78860;SDS011;68211;45.774;15.892;2023-06-26T00:24:40;29.25;;;15.20;;
78860;SDS011;68211;45.774;15.892;2023-06-26T00:27:08;27.10;;;16.20;;
78860;SDS011;68211;45.774;15.892;2023-06-26T00:29:36;26.40;;;14.25;;
78860;SDS011;68211;45.774;15.892;2023-06-26T00:32:03;24.65;;;14.15;;
78860;SDS011;68211;45.774;15.892;2023-06-26T00:34:29;21.02;;;14.00;;
78860;SDS011;68211;45.774;15.892;2023-06-26T00:36:56;23.35;;;14.93;;
78860;SDS011;68211;45.774;15.892;2023-06-26T00:39:22;22.42;;;13.90;;
78860;SDS011;68211;45.774;15.892;2023-06-26T00:41:49;21.95;;;13.40;;
78860;SDS011;68211;45.774;15.892;2023-06-26T00:44:17;22.90;;;13.75;;
78860;SDS011;68211;45.774;15.892;2023-06-26T00:46:43;23.90;;;14.07;;
78860;SDS011;68211;45.774;15.892;2023-06-26T00:49:10;23.55;;;13.50;;
78860;SDS011;68211;45.774;15.892;2023-06-26T00:51:36;27.02;;;14.25;;
78860;SDS011;68211;45.774;15.892;2023-06-26T00:54:03;30.27;;;15.77;;
78860;SDS011;68211;45.774;15.892;2023-06-26T00:56:29;25.92;;;15.60;;
78860;SDS011;68211;45.774;15.892;2023-06-26T00:58:57;31.98;;;16.13;;
78860;SDS011;68211;45.774;15.892;2023-06-26T01:01:25;25.85;;;15.85;;
78860;SDS011;68211;45.774;15.892;2023-06-26T01:03:51;30.27;;;16.33;;
78860;SDS011;68211;45.774;15.892;2023-06-26T01:06:20;34.33;;;16.65;;
78860;SDS011;68211;45.774;15.892;2023-06-26T01:08:46;27.10;;;16.20;;
78860;SDS011;68211;45.774;15.892;2023-06-26T01:11:13;29.83;;;16.92;;
78860;SDS011;68211;45.774;15.892;2023-06-26T01:13:41;28.48;;;16.50;;
78860;SDS011;68211;45.774;15.892;2023-06-26T01:16:08;30.77;;;16.55;;
78860;SDS011;68211;45.774;15.892;2023-06-26T01:18:37;26.45;;;16.55;;
78860;SDS011;68211;45.774;15.892;2023-06-26T01:21:03;31.10;;;16.73;;
78860;SDS011;68211;45.774;15.892;2023-06-26T01:23:31;29.10;;;16.88;;
78860;SDS011;68211;45.774;15.892;2023-06-26T01:26:14;28.35;;;16.23;;
78860;SDS011;68211;45.774;15.892;2023-06-26T01:28:42;25.05;;;16.02;;
78860;SDS011;68211;45.774;15.892;2023-06-26T01:31:09;26.92;;;16.67;;
78860;SDS011;68211;45.774;15.892;2023-06-26T01:33:36;27.48;;;16.48;;
78860;SDS011;68211;45.774;15.892;2023-06-26T01:36:03;30.58;;;16.83;;
78860;SDS011;68211;45.774;15.892;2023-06-26T01:38:29;28.90;;;16.30;;
78860;SDS011;68211;45.774;15.892;2023-06-26T01:40:56;27.42;;;16.50;;
78860;SDS011;68211;45.774;15.892;2023-06-26T01:43:26;27.67;;;16.42;;
78860;SDS011;68211;45.774;15.892;2023-06-26T01:45:54;30.25;;;15.50;;
78860;SDS011;68211;45.774;15.892;2023-06-26T01:48:23;29.25;;;15.73;;
78860;SDS011;68211;45.774;15.892;2023-06-26T01:50:50;33.85;;;15.20;;
78860;SDS011;68211;45.774;15.892;2023-06-26T01:53:18;36.97;;;16.02;;
78860;SDS011;68211;45.774;15.892;2023-06-26T01:55:46;23.27;;;15.13;;
78860;SDS011;68211;45.774;15.892;2023-06-26T01:58:13;29.48;;;16.02;;
78860;SDS011;68211;45.774;15.892;2023-06-26T02:00:41;24.55;;;15.57;;
78860;SDS011;68211;45.774;15.892;2023-06-26T02:03:08;28.73;;;15.23;;
78860;SDS011;68211;45.774;15.892;2023-06-26T02:05:34;33.85;;;15.40;;
78860;SDS011;68211;45.774;15.892;2023-06-26T02:08:01;30.65;;;15.55;;
78860;SDS011;68211;45.774;15.892;2023-06-26T02:10:27;25.83;;;16.05;;
78860;SDS011;68211;45.774;15.892;2023-06-26T02:12:54;25.65;;;14.98;;
78860;SDS011;68211;45.774;15.892;2023-06-26T02:15:20;35.63;;;15.25;;
78860;SDS011;68211;45.774;15.892;2023-06-26T02:17:48;22.67;;;15.35;;
78860;SDS011;68211;45.774;15.892;2023-06-26T02:20:15;27.17;;;16.52;;
78860;SDS011;68211;45.774;15.892;2023-06-26T02:22:41;35.13;;;16.30;;
78860;SDS011;68211;45.774;15.892;2023-06-26T02:25:08;27.85;;;16.58;;
78860;SDS011;68211;45.774;15.892;2023-06-26T02:27:35;32.10;;;16.75;;
78860;SDS011;68211;45.774;15.892;2023-06-26T02:30:01;28.20;;;16.02;;
78860;SDS011;68211;45.774;15.892;2023-06-26T02:32:28;31.38;;;16.27;;
78860;SDS011;68211;45.774;15.892;2023-06-26T02:34:56;30.35;;;15.93;;
78860;SDS011;68211;45.774;15.892;2023-06-26T02:37:22;25.65;;;16.38;;
78860;SDS011;68211;45.774;15.892;2023-06-26T02:39:48;30.98;;;15.82;;
78860;SDS011;68211;45.774;15.892;2023-06-26T02:42:15;28.50;;;15.82;;
78860;SDS011;68211;45.774;15.892;2023-06-26T02:44:41;24.98;;;15.07;;
78860;SDS011;68211;45.774;15.892;2023-06-26T02:47:08;21.45;;;15.10;;
78860;SDS011;68211;45.774;15.892;2023-06-26T02:49:34;26.83;;;15.80;;
78860;SDS011;68211;45.774;15.892;2023-06-26T02:52:04;23.08;;;15.32;;
78860;SDS011;68211;45.774;15.892;2023-06-26T02:54:34;23.73;;;15.10;;
78860;SDS011;68211;45.774;15.892;2023-06-26T02:57:00;23.75;;;15.52;;
78860;SDS011;68211;45.774;15.892;2023-06-26T02:59:27;23.63;;;14.48;;
78860;SDS011;68211;45.774;15.892;2023-06-26T03:01:53;24.27;;;14.68;;
78860;SDS011;68211;45.774;15.892;2023-06-26T03:04:20;25.80;;;15.88;;
78860;SDS011;68211;45.774;15.892;2023-06-26T03:06:46;33.67;;;15.00;;
78860;SDS011;68211;45.774;15.892;2023-06-26T03:09:14;26.73;;;14.73;;
78860;SDS011;68211;45.774;15.892;2023-06-26T03:11:41;24.52;;;14.77;;
78860;SDS011;68211;45.774;15.892;2023-06-26T03:14:07;23.10;;;15.27;;
78860;SDS011;68211;45.774;15.892;2023-06-26T03:16:33;22.08;;;14.82;;
78860;SDS011;68211;45.774;15.892;2023-06-26T03:19:00;23.33;;;13.98;;
78860;SDS011;68211;45.774;15.892;2023-06-26T03:21:26;28.27;;;14.13;;
78860;SDS011;68211;45.774;15.892;2023-06-26T03:23:53;24.45;;;14.45;;
78860;SDS011;68211;45.774;15.892;2023-06-26T03:26:21;23.52;;;14.32;;
78860;SDS011;68211;45.774;15.892;2023-06-26T03:28:47;29.08;;;14.52;;
78860;SDS011;68211;45.774;15.892;2023-06-26T03:31:13;29.88;;;14.52;;
78860;SDS011;68211;45.774;15.892;2023-06-26T03:33:40;25.00;;;14.85;;
78860;SDS011;68211;45.774;15.892;2023-06-26T03:36:06;24.92;;;14.43;;
78860;SDS011;68211;45.774;15.892;2023-06-26T03:38:33;28.10;;;15.07;;
78860;SDS011;68211;45.774;15.892;2023-06-26T03:40:59;28.85;;;14.85;;
78860;SDS011;68211;45.774;15.892;2023-06-26T03:43:27;23.95;;;14.98;;
78860;SDS011;68211;45.774;15.892;2023-06-26T03:45:53;22.40;;;14.30;;
78860;SDS011;68211;45.774;15.892;2023-06-26T03:48:20;25.08;;;16.05;;
78860;SDS011;68211;45.774;15.892;2023-06-26T03:50:46;27.17;;;15.20;;
78860;SDS011;68211;45.774;15.892;2023-06-26T03:53:13;30.67;;;15.52;;
78860;SDS011;68211;45.774;15.892;2023-06-26T03:55:39;29.13;;;14.95;;
78860;SDS011;68211;45.774;15.892;2023-06-26T03:58:06;30.90;;;14.70;;
78860;SDS011;68211;45.774;15.892;2023-06-26T04:00:34;31.13;;;14.90;;
78860;SDS011;68211;45.774;15.892;2023-06-26T04:03:00;25.52;;;14.68;;
78860;SDS011;68211;45.774;15.892;2023-06-26T04:05:27;24.20;;;14.48;;
78860;SDS011;68211;45.774;15.892;2023-06-26T04:07:53;26.48;;;15.05;;
78860;SDS011;68211;45.774;15.892;2023-06-26T04:10:20;35.60;;;14.40;;
78860;SDS011;68211;45.774;15.892;2023-06-26T04:12:46;28.58;;;15.13;;
78860;SDS011;68211;45.774;15.892;2023-06-26T04:15:13;26.88;;;15.02;;
78860;SDS011;68211;45.774;15.892;2023-06-26T04:17:41;24.85;;;14.75;;
78860;SDS011;68211;45.774;15.892;2023-06-26T04:20:08;33.05;;;14.50;;
78860;SDS011;68211;45.774;15.892;2023-06-26T04:22:34;30.20;;;15.02;;
78860;SDS011;68211;45.774;15.892;2023-06-26T04:25:01;36.60;;;14.70;;
78860;SDS011;68211;45.774;15.892;2023-06-26T04:27:28;20.15;;;14.32;;
78860;SDS011;68211;45.774;15.892;2023-06-26T04:29:55;27.05;;;14.25;;
78860;SDS011;68211;45.774;15.892;2023-06-26T04:32:21;31.75;;;14.98;;
78860;SDS011;68211;45.774;15.892;2023-06-26T04:34:50;32.53;;;15.95;;
78860;SDS011;68211;45.774;15.892;2023-06-26T04:37:16;30.15;;;15.07;;
78860;SDS011;68211;45.774;15.892;2023-06-26T04:39:43;29.50;;;14.48;;
78860;SDS011;68211;45.774;15.892;2023-06-26T04:42:09;24.45;;;15.02;;
78860;SDS011;68211;45.774;15.892;2023-06-26T04:44:35;21.48;;;13.88;;
78860;SDS011;68211;45.774;15.892;2023-06-26T04:47:02;23.95;;;13.48;;
78860;SDS011;68211;45.774;15.892;2023-06-26T04:49:29;34.85;;;15.25;;
78860;SDS011;68211;45.774;15.892;2023-06-26T04:51:56;30.75;;;13.23;;
78860;SDS011;68211;45.774;15.892;2023-06-26T04:54:23;33.42;;;14.95;;
78860;SDS011;68211;45.774;15.892;2023-06-26T04:56:49;23.77;;;13.25;;
78860;SDS011;68211;45.774;15.892;2023-06-26T04:59:16;30.88;;;14.25;;
78860;SDS011;68211;45.774;15.892;2023-06-26T05:01:42;34.75;;;14.18;;
78860;SDS011;68211;45.774;15.892;2023-06-26T05:04:09;28.42;;;14.65;;
78860;SDS011;68211;45.774;15.892;2023-06-26T05:06:35;26.92;;;14.00;;
78860;SDS011;68211;45.774;15.892;2023-06-26T05:09:05;34.28;;;14.32;;
78860;SDS011;68211;45.774;15.892;2023-06-26T05:11:32;30.67;;;14.68;;
78860;SDS011;68211;45.774;15.892;2023-06-26T05:13:58;20.50;;;13.60;;
78860;SDS011;68211;45.774;15.892;2023-06-26T05:16:24;27.48;;;13.45;;
78860;SDS011;68211;45.774;15.892;2023-06-26T05:18:51;29.88;;;14.90;;
78860;SDS011;68211;45.774;15.892;2023-06-26T05:21:18;30.70;;;14.07;;
78860;SDS011;68211;45.774;15.892;2023-06-26T05:23:44;29.08;;;14.68;;
78860;SDS011;68211;45.774;15.892;2023-06-26T05:26:12;28.33;;;14.48;;
78860;SDS011;68211;45.774;15.892;2023-06-26T05:28:39;36.00;;;14.50;;
78860;SDS011;68211;45.774;15.892;2023-06-26T05:31:06;31.15;;;13.98;;
78860;SDS011;68211;45.774;15.892;2023-06-26T05:33:34;28.70;;;14.63;;
78860;SDS011;68211;45.774;15.892;2023-06-26T05:36:01;29.95;;;14.45;;
78860;SDS011;68211;45.774;15.892;2023-06-26T05:38:30;38.03;;;14.52;;
78860;SDS011;68211;45.774;15.892;2023-06-26T05:40:56;29.33;;;15.48;;
78860;SDS011;68211;45.774;15.892;2023-06-26T05:43:27;30.00;;;15.20;;
78860;SDS011;68211;45.774;15.892;2023-06-26T05:45:55;29.50;;;14.88;;
78860;SDS011;68211;45.774;15.892;2023-06-26T05:48:22;27.60;;;15.00;;
78860;SDS011;68211;45.774;15.892;2023-06-26T05:50:49;28.73;;;14.45;;
78860;SDS011;68211;45.774;15.892;2023-06-26T05:53:15;38.67;;;15.00;;
78860;SDS011;68211;45.774;15.892;2023-06-26T05:55:42;30.95;;;14.77;;
78860;SDS011;68211;45.774;15.892;2023-06-26T05:58:09;29.25;;;14.38;;
78860;SDS011;68211;45.774;15.892;2023-06-26T06:00:38;26.00;;;15.00;;
78860;SDS011;68211;45.774;15.892;2023-06-26T06:03:05;34.45;;;15.95;;
78860;SDS011;68211;45.774;15.892;2023-06-26T06:05:31;31.05;;;14.45;;
78860;SDS011;68211;45.774;15.892;2023-06-26T06:07:58;28.25;;;15.20;;
78860;SDS011;68211;45.774;15.892;2023-06-26T06:10:24;27.33;;;14.38;;
78860;SDS011;68211;45.774;15.892;2023-06-26T06:12:51;28.60;;;15.40;;
78860;SDS011;68211;45.774;15.892;2023-06-26T06:15:17;31.52;;;15.10;;
78860;SDS011;68211;45.774;15.892;2023-06-26T06:17:45;23.50;;;15.05;;
78860;SDS011;68211;45.774;15.892;2023-06-26T06:20:12;30.73;;;15.30;;
78860;SDS011;68211;45.774;15.892;2023-06-26T06:22:38;27.00;;;15.05;;
78860;SDS011;68211;45.774;15.892;2023-06-26T06:25:05;40.90;;;14.43;;
78860;SDS011;68211;45.774;15.892;2023-06-26T06:27:31;27.30;;;14.75;;
78860;SDS011;68211;45.774;15.892;2023-06-26T06:29:58;24.30;;;15.15;;
78860;SDS011;68211;45.774;15.892;2023-06-26T06:32:24;21.20;;;13.70;;
78860;SDS011;68211;45.774;15.892;2023-06-26T06:34:52;24.65;;;14.07;;
78860;SDS011;68211;45.774;15.892;2023-06-26T06:37:19;28.20;;;14.80;;
78860;SDS011;68211;45.774;15.892;2023-06-26T06:39:45;23.20;;;14.13;;
78860;SDS011;68211;45.774;15.892;2023-06-26T06:42:12;27.02;;;14.65;;
78860;SDS011;68211;45.774;15.892;2023-06-26T06:44:38;27.35;;;15.25;;
78860;SDS011;68211;45.774;15.892;2023-06-26T06:47:05;24.75;;;14.90;;
78860;SDS011;68211;45.774;15.892;2023-06-26T06:49:31;25.38;;;14.25;;
78860;SDS011;68211;45.774;15.892;2023-06-26T06:51:59;27.63;;;14.80;;
78860;SDS011;68211;45.774;15.892;2023-06-26T06:54:26;32.58;;;15.52;;
78860;SDS011;68211;45.774;15.892;2023-06-26T06:56:52;29.58;;;14.75;;
78860;SDS011;68211;45.774;15.892;2023-06-26T06:59:19;20.58;;;14.05;;
78860;SDS011;68211;45.774;15.892;2023-06-26T07:01:45;27.73;;;14.65;;
78860;SDS011;68211;45.774;15.892;2023-06-26T07:04:12;24.85;;;15.07;;
78860;SDS011;68211;45.774;15.892;2023-06-26T07:06:38;23.42;;;13.93;;
78860;SDS011;68211;45.774;15.892;2023-06-26T07:09:06;30.00;;;14.50;;
78860;SDS011;68211;45.774;15.892;2023-06-26T07:11:32;28.00;;;15.80;;
78860;SDS011;68211;45.774;15.892;2023-06-26T07:13:59;26.33;;;14.32;;
78860;SDS011;68211;45.774;15.892;2023-06-26T07:16:25;23.70;;;14.02;;
78860;SDS011;68211;45.774;15.892;2023-06-26T07:18:52;25.83;;;15.05;;
78860;SDS011;68211;45.774;15.892;2023-06-26T07:21:18;32.97;;;14.48;;
78860;SDS011;68211;45.774;15.892;2023-06-26T07:23:45;26.13;;;14.68;;
78860;SDS011;68211;45.774;15.892;2023-06-26T07:26:13;28.90;;;14.52;;
78860;SDS011;68211;45.774;15.892;2023-06-26T07:28:40;23.05;;;14.20;;
78860;SDS011;68211;45.774;15.892;2023-06-26T07:31:06;22.77;;;14.40;;
78860;SDS011;68211;45.774;15.892;2023-06-26T07:33:33;22.88;;;13.48;;
78860;SDS011;68211;45.774;15.892;2023-06-26T07:35:59;24.30;;;14.13;;
78860;SDS011;68211;45.774;15.892;2023-06-26T07:38:25;27.23;;;14.25;;
78860;SDS011;68211;45.774;15.892;2023-06-26T07:40:52;29.00;;;15.07;;
78860;SDS011;68211;45.774;15.892;2023-06-26T07:43:20;23.75;;;14.05;;
78860;SDS011;68211;45.774;15.892;2023-06-26T07:45:46;19.17;;;12.60;;
78860;SDS011;68211;45.774;15.892;2023-06-26T07:48:13;33.75;;;14.18;;
78860;SDS011;68211;45.774;15.892;2023-06-26T07:50:39;28.30;;;14.05;;
78860;SDS011;68211;45.774;15.892;2023-06-26T07:53:06;35.05;;;13.65;;
78860;SDS011;68211;45.774;15.892;2023-06-26T07:55:32;24.27;;;13.75;;
78860;SDS011;68211;45.774;15.892;2023-06-26T07:57:59;26.05;;;13.32;;
78860;SDS011;68211;45.774;15.892;2023-06-26T08:00:27;23.10;;;14.40;;
78860;SDS011;68211;45.774;15.892;2023-06-26T08:02:53;22.90;;;13.50;;
78860;SDS011;68211;45.774;15.892;2023-06-26T08:05:20;25.23;;;14.25;;
78860;SDS011;68211;45.774;15.892;2023-06-26T08:10:18;19.73;;;13.47;;
78860;SDS011;68211;45.774;15.892;2023-06-26T08:12:44;20.67;;;13.10;;
78860;SDS011;68211;45.774;15.892;2023-06-26T08:15:11;24.20;;;14.15;;
78860;SDS011;68211;45.774;15.892;2023-06-26T08:17:38;21.08;;;13.27;;
78860;SDS011;68211;45.774;15.892;2023-06-26T08:20:05;26.30;;;13.48;;
78860;SDS011;68211;45.774;15.892;2023-06-26T08:22:32;18.45;;;12.85;;
78860;SDS011;68211;45.774;15.892;2023-06-26T08:24:58;25.90;;;13.45;;
78860;SDS011;68211;45.774;15.892;2023-06-26T08:27:25;20.48;;;12.63;;
78860;SDS011;68211;45.774;15.892;2023-06-26T08:29:51;20.50;;;12.48;;
78860;SDS011;68211;45.774;15.892;2023-06-26T08:32:18;19.92;;;12.57;;
78860;SDS011;68211;45.774;15.892;2023-06-26T08:34:46;20.90;;;12.95;;
78860;SDS011;68211;45.774;15.892;2023-06-26T08:37:14;18.63;;;11.98;;
78860;SDS011;68211;45.774;15.892;2023-06-26T08:39:41;19.70;;;10.60;;
78860;SDS011;68211;45.774;15.892;2023-06-26T08:42:08;21.35;;;12.18;;
78860;SDS011;68211;45.774;15.892;2023-06-26T08:44:38;18.23;;;10.82;;
78860;SDS011;68211;45.774;15.892;2023-06-26T08:47:22;14.90;;;11.00;;
78860;SDS011;68211;45.774;15.892;2023-06-26T08:49:56;15.97;;;11.23;;
78860;SDS011;68211;45.774;15.892;2023-06-26T08:52:28;18.08;;;11.00;;
78860;SDS011;68211;45.774;15.892;2023-06-26T08:54:58;18.75;;;10.85;;
78860;SDS011;68211;45.774;15.892;2023-06-26T08:57:26;20.88;;;10.82;;
78860;SDS011;68211;45.774;15.892;2023-06-26T08:59:57;16.40;;;11.10;;
78860;SDS011;68211;45.774;15.892;2023-06-26T09:02:26;20.58;;;10.90;;
78860;SDS011;68211;45.774;15.892;2023-06-26T09:04:56;19.63;;;10.43;;
78860;SDS011;68211;45.774;15.892;2023-06-26T09:07:26;14.00;;;9.70;;
78860;SDS011;68211;45.774;15.892;2023-06-26T09:09:56;17.63;;;10.40;;
78860;SDS011;68211;45.774;15.892;2023-06-26T09:12:26;20.98;;;9.52;;
78860;SDS011;68211;45.774;15.892;2023-06-26T09:14:56;13.85;;;9.52;;
78860;SDS011;68211;45.774;15.892;2023-06-26T09:17:30;16.15;;;9.70;;
78860;SDS011;68211;45.774;15.892;2023-06-26T09:19:59;19.67;;;10.00;;
78860;SDS011;68211;45.774;15.892;2023-06-26T09:22:33;22.45;;;10.40;;
78860;SDS011;68211;45.774;15.892;2023-06-26T09:25:02;16.48;;;9.82;;
78860;SDS011;68211;45.774;15.892;2023-06-26T09:27:35;19.63;;;9.93;;
78860;SDS011;68211;45.774;15.892;2023-06-26T09:30:11;19.08;;;10.57;;
78860;SDS011;68211;45.774;15.892;2023-06-26T09:32:46;15.75;;;9.98;;
78860;SDS011;68211;45.774;15.892;2023-06-26T09:35:15;18.90;;;10.60;;
78860;SDS011;68211;45.774;15.892;2023-06-26T09:37:42;13.55;;;9.70;;
78860;SDS011;68211;45.774;15.892;2023-06-26T09:40:11;17.00;;;9.55;;
78860;SDS011;68211;45.774;15.892;2023-06-26T09:42:42;16.05;;;10.20;;
78860;SDS011;68211;45.774;15.892;2023-06-26T09:45:12;12.43;;;9.38;;
78860;SDS011;68211;45.774;15.892;2023-06-26T09:47:43;20.88;;;10.18;;
78860;SDS011;68211;45.774;15.892;2023-06-26T09:50:21;15.30;;;10.35;;
78860;SDS011;68211;45.774;15.892;2023-06-26T09:52:50;17.95;;;10.85;;
78860;SDS011;68211;45.774;15.892;2023-06-26T09:55:17;15.18;;;10.05;;
78860;SDS011;68211;45.774;15.892;2023-06-26T09:57:45;13.77;;;9.75;;
78860;SDS011;68211;45.774;15.892;2023-06-26T10:00:13;15.35;;;10.13;;
78860;SDS011;68211;45.774;15.892;2023-06-26T10:02:39;19.10;;;10.30;;
78860;SDS011;68211;45.774;15.892;2023-06-26T10:05:06;14.48;;;10.82;;
78860;SDS011;68211;45.774;15.892;2023-06-26T10:07:34;14.93;;;10.25;;
78860;SDS011;68211;45.774;15.892;2023-06-26T10:10:02;14.02;;;9.75;;
78860;SDS011;68211;45.774;15.892;2023-06-26T10:12:28;20.00;;;10.23;;
78860;SDS011;68211;45.774;15.892;2023-06-26T10:14:55;20.25;;;10.07;;
78860;SDS011;68211;45.774;15.892;2023-06-26T10:17:22;14.40;;;9.90;;
78860;SDS011;68211;45.774;15.892;2023-06-26T10:19:50;16.58;;;10.55;;
78860;SDS011;68211;45.774;15.892;2023-06-26T10:22:17;15.32;;;10.50;;
78860;SDS011;68211;45.774;15.892;2023-06-26T10:24:45;19.80;;;9.88;;
78860;SDS011;68211;45.774;15.892;2023-06-26T10:27:14;14.73;;;9.98;;
78860;SDS011;68211;45.774;15.892;2023-06-26T10:29:41;18.67;;;9.65;;
78860;SDS011;68211;45.774;15.892;2023-06-26T10:32:10;13.48;;;9.65;;
78860;SDS011;68211;45.774;15.892;2023-06-26T10:34:37;16.10;;;11.07;;
78860;SDS011;68211;45.774;15.892;2023-06-26T10:37:04;14.88;;;9.75;;
78860;SDS011;68211;45.774;15.892;2023-06-26T10:39:48;14.90;;;11.05;;
78860;SDS011;68211;45.774;15.892;2023-06-26T10:42:18;18.65;;;10.52;;
78860;SDS011;68211;45.774;15.892;2023-06-26T10:44:46;19.38;;;9.95;;
78860;SDS011;68211;45.774;15.892;2023-06-26T10:47:28;20.48;;;10.10;;
78860;SDS011;68211;45.774;15.892;2023-06-26T10:49:55;11.98;;;9.52;;
78860;SDS011;68211;45.774;15.892;2023-06-26T10:52:38;15.38;;;10.18;;
78860;SDS011;68211;45.774;15.892;2023-06-26T10:55:07;13.48;;;9.23;;
78860;SDS011;68211;45.774;15.892;2023-06-26T10:57:34;18.50;;;10.00;;
78860;SDS011;68211;45.774;15.892;2023-06-26T11:00:08;14.25;;;9.75;;
78860;SDS011;68211;45.774;15.892;2023-06-26T11:02:47;12.23;;;10.00;;
78860;SDS011;68211;45.774;15.892;2023-06-26T11:05:22;16.55;;;9.45;;
78860;SDS011;68211;45.774;15.892;2023-06-26T11:08:02;12.00;;;9.10;;
78860;SDS011;68211;45.774;15.892;2023-06-26T11:10:30;14.65;;;10.57;;
78860;SDS011;68211;45.774;15.892;2023-06-26T11:13:14;16.30;;;9.82;;
78860;SDS011;68211;45.774;15.892;2023-06-26T11:15:42;14.88;;;10.32;;
78860;SDS011;68211;45.774;15.892;2023-06-26T11:18:09;14.82;;;10.35;;
78860;SDS011;68211;45.774;15.892;2023-06-26T11:20:36;15.57;;;9.95;;
78860;SDS011;68211;45.774;15.892;2023-06-26T11:23:03;15.38;;;10.48;;
78860;SDS011;68211;45.774;15.892;2023-06-26T11:25:32;13.65;;;10.02;;
78860;SDS011;68211;45.774;15.892;2023-06-26T11:28:02;14.45;;;9.98;;
78860;SDS011;68211;45.774;15.892;2023-06-26T11:30:29;14.55;;;9.60;;
78860;SDS011;68211;45.774;15.892;2023-06-26T11:33:02;16.70;;;10.27;;
78860;SDS011;68211;45.774;15.892;2023-06-26T11:35:29;11.43;;;9.77;;
78860;SDS011;68211;45.774;15.892;2023-06-26T11:37:58;15.68;;;10.80;;
78860;SDS011;68211;45.774;15.892;2023-06-26T11:40:28;15.77;;;9.57;;
78860;SDS011;68211;45.774;15.892;2023-06-26T11:45:26;15.60;;;10.05;;
78860;SDS011;68211;45.774;15.892;2023-06-26T11:47:54;20.20;;;10.40;;
78860;SDS011;68211;45.774;15.892;2023-06-26T11:50:25;15.97;;;9.27;;
78860;SDS011;68211;45.774;15.892;2023-06-26T11:52:57;18.17;;;9.50;;
78860;SDS011;68211;45.774;15.892;2023-06-26T11:55:27;13.38;;;9.63;;
78860;SDS011;68211;45.774;15.892;2023-06-26T11:57:56;12.50;;;9.00;;
78860;SDS011;68211;45.774;15.892;2023-06-26T12:00:23;13.30;;;9.97;;
78860;SDS011;68211;45.774;15.892;2023-06-26T12:02:56;11.70;;;9.07;;
78860;SDS011;68211;45.774;15.892;2023-06-26T12:05:23;15.93;;;9.00;;
78860;SDS011;68211;45.774;15.892;2023-06-26T12:07:50;19.05;;;9.32;;
78860;SDS011;68211;45.774;15.892;2023-06-26T12:10:17;10.25;;;8.48;;
78860;SDS011;68211;45.774;15.892;2023-06-26T12:12:45;16.00;;;9.65;;
78860;SDS011;68211;45.774;15.892;2023-06-26T12:15:13;21.75;;;8.73;;
78860;SDS011;68211;45.774;15.892;2023-06-26T12:17:42;13.35;;;8.95;;
78860;SDS011;68211;45.774;15.892;2023-06-26T12:20:18;17.17;;;9.63;;
78860;SDS011;68211;45.774;15.892;2023-06-26T12:22:47;14.95;;;8.60;;
78860;SDS011;68211;45.774;15.892;2023-06-26T12:25:20;13.25;;;9.25;;
78860;SDS011;68211;45.774;15.892;2023-06-26T12:27:48;15.45;;;9.00;;
78860;SDS011;68211;45.774;15.892;2023-06-26T12:30:15;16.30;;;9.07;;
78860;SDS011;68211;45.774;15.892;2023-06-26T12:32:44;11.05;;;8.30;;
78860;SDS011;68211;45.774;15.892;2023-06-26T12:35:10;14.35;;;8.73;;
78860;SDS011;68211;45.774;15.892;2023-06-26T12:37:38;13.98;;;9.07;;
78860;SDS011;68211;45.774;15.892;2023-06-26T12:40:09;11.50;;;8.98;;
78860;SDS011;68211;45.774;15.892;2023-06-26T12:42:42;12.50;;;9.45;;
78860;SDS011;68211;45.774;15.892;2023-06-26T12:45:11;17.77;;;8.82;;
78860;SDS011;68211;45.774;15.892;2023-06-26T12:48:06;13.70;;;9.60;;
78860;SDS011;68211;45.774;15.892;2023-06-26T12:50:36;13.77;;;9.60;;
78860;SDS011;68211;45.774;15.892;2023-06-26T12:53:05;13.50;;;8.95;;
78860;SDS011;68211;45.774;15.892;2023-06-26T12:55:32;12.63;;;8.98;;
78860;SDS011;68211;45.774;15.892;2023-06-26T12:57:59;15.70;;;9.18;;
78860;SDS011;68211;45.774;15.892;2023-06-26T13:00:25;10.52;;;8.63;;
78860;SDS011;68211;45.774;15.892;2023-06-26T13:02:52;18.23;;;8.77;;
78860;SDS011;68211;45.774;15.892;2023-06-26T13:05:19;12.30;;;8.50;;
78860;SDS011;68211;45.774;15.892;2023-06-26T13:07:46;14.98;;;8.30;;
78860;SDS011;68211;45.774;15.892;2023-06-26T13:10:14;12.05;;;8.55;;
78860;SDS011;68211;45.774;15.892;2023-06-26T13:12:40;12.83;;;8.50;;
78860;SDS011;68211;45.774;15.892;2023-06-26T13:15:07;11.38;;;8.32;;
78860;SDS011;68211;45.774;15.892;2023-06-26T13:17:34;9.88;;;8.43;;
78860;SDS011;68211;45.774;15.892;2023-06-26T13:20:01;10.38;;;8.40;;
78860;SDS011;68211;45.774;15.892;2023-06-26T13:22:28;12.52;;;8.40;;
78860;SDS011;68211;45.774;15.892;2023-06-26T13:24:54;9.88;;;8.50;;
78860;SDS011;68211;45.774;15.892;2023-06-26T13:27:25;13.45;;;8.60;;
78860;SDS011;68211;45.774;15.892;2023-06-26T13:29:52;17.90;;;8.52;;
78860;SDS011;68211;45.774;15.892;2023-06-26T13:32:19;11.15;;;8.27;;
78860;SDS011;68211;45.774;15.892;2023-06-26T13:34:46;17.58;;;8.90;;
78860;SDS011;68211;45.774;15.892;2023-06-26T13:37:12;13.05;;;8.38;;
78860;SDS011;68211;45.774;15.892;2023-06-26T13:39:39;14.57;;;8.45;;
78860;SDS011;68211;45.774;15.892;2023-06-26T13:42:06;13.88;;;8.45;;
78860;SDS011;68211;45.774;15.892;2023-06-26T13:44:35;13.52;;;8.57;;
78860;SDS011;68211;45.774;15.892;2023-06-26T13:47:17;12.60;;;8.35;;
78860;SDS011;68211;45.774;15.892;2023-06-26T13:49:44;13.43;;;8.77;;
78860;SDS011;68211;45.774;15.892;2023-06-26T13:52:11;10.90;;;8.70;;
78860;SDS011;68211;45.774;15.892;2023-06-26T13:54:38;16.80;;;8.82;;
78860;SDS011;68211;45.774;15.892;2023-06-26T13:57:05;13.48;;;8.23;;
78860;SDS011;68211;45.774;15.892;2023-06-26T13:59:32;12.50;;;8.82;;
78860;SDS011;68211;45.774;15.892;2023-06-26T14:02:00;10.50;;;8.98;;
78860;SDS011;68211;45.774;15.892;2023-06-26T14:04:27;12.95;;;7.93;;
78860;SDS011;68211;45.774;15.892;2023-06-26T14:06:54;13.98;;;8.45;;
78860;SDS011;68211;45.774;15.892;2023-06-26T14:09:21;13.40;;;8.32;;
78860;SDS011;68211;45.774;15.892;2023-06-26T14:11:48;13.07;;;8.23;;
78860;SDS011;68211;45.774;15.892;2023-06-26T14:14:15;10.57;;;7.97;;
78860;SDS011;68211;45.774;15.892;2023-06-26T14:16:42;13.35;;;8.10;;
78860;SDS011;68211;45.774;15.892;2023-06-26T14:19:11;12.48;;;8.10;;